Time;durP1;ratioP1;P1;durP2;ratioP2;P2;SDS_P1;SDS_P2;PMS_P1;PMS_P2;Temp;Humidity;BMP_temperature;BMP_pressure;BME280_temperature;BME280_humidity;BME280_pressure;Samples;Min_cycle;Max_cycle;Signal;HPM_P1;HPM_P2
2022/08/17 00:00:59;;;;;;;40.10;32.45;;;21.10;99.90;;;;;;5114256;28;20040;-67
2022/08/17 00:03:32;;;;;;;35.90;30.10;;;21.00;99.90;;;;;;5114300;28;20082;-67
2022/08/17 00:06:00;;;;;;;;;;;21.00;99.90;;;;;;5114585;28;20072;-67
2022/08/17 00:08:35;;;;;;;39.85;30.13;;;20.80;99.90;;;;;;5114106;28;20369;-67
2022/08/17 00:11:04;;;;;;;36.20;29.52;;;21.00;99.90;;;;;;5113929;28;20118;-67
2022/08/17 00:13:43;;;;;;;36.13;29.38;;;21.10;99.90;;;;;;5114148;28;20131;-67
2022/08/17 00:16:14;;;;;;;37.92;30.25;;;20.90;99.90;;;;;;5113688;28;20058;-67
2022/08/17 00:18:40;;;;;;;37.50;30.08;;;21.00;99.90;;;;;;5113677;28;20074;-67
2022/08/17 00:21:08;;;;;;;42.10;32.58;;;21.00;99.90;;;;;;5112748;27;20036;-67
2022/08/17 00:23:34;;;;;;;45.85;36.15;;;21.00;99.90;;;;;;5125405;27;20078;-67
2022/08/17 00:26:00;;;;;;;43.63;34.47;;;20.80;99.90;;;;;;5126173;27;20385;-67
2022/08/17 00:28:26;;;;;;;44.17;31.70;;;20.70;99.90;;;;;;5109132;27;20096;-67
2022/08/17 00:30:52;;;;;;;44.45;32.88;;;20.80;99.90;;;;;;5133915;27;20035;-67
2022/08/17 00:33:28;;;;;;;41.08;32.95;;;20.60;99.90;;;;;;5123405;27;20032;-67
2022/08/17 00:35:55;;;;;;;39.45;31.80;;;20.70;99.90;;;;;;5100920;27;20043;-67
2022/08/17 00:38:23;;;;;;;43.13;33.00;;;20.60;99.90;;;;;;5113640;28;20118;-67
2022/08/17 00:40:57;;;;;;;43.13;33.80;;;20.80;99.90;;;;;;5113296;28;20039;-67
2022/08/17 00:43:34;;;;;;;50.20;36.15;;;20.60;99.90;;;;;;5113589;28;20035;-67
2022/08/17 00:46:06;;;;;;;47.80;35.42;;;20.60;99.90;;;;;;5094843;28;20047;-67
2022/08/17 00:48:32;;;;;;;39.20;31.80;;;20.50;99.90;;;;;;5113546;28;20062;-67
2022/08/17 00:51:11;;;;;;;37.40;32.08;;;20.70;99.90;;;;;;5113001;28;20504;-67
2022/08/17 00:53:48;;;;;;;46.20;34.22;;;20.70;99.90;;;;;;5113321;28;20096;-67
2022/08/17 00:56:21;;;;;;;43.65;34.10;;;20.60;99.90;;;;;;5094964;28;20078;-67
2022/08/17 00:58:49;;;;;;;43.45;33.03;;;20.60;99.90;;;;;;5113129;28;20092;-67
2022/08/17 01:01:15;;;;;;;38.33;32.60;;;20.60;99.90;;;;;;5112926;28;20439;-67
2022/08/17 01:03:42;;;;;;;41.47;33.42;;;20.80;99.90;;;;;;5112999;28;20081;-67
2022/08/17 01:06:08;;;;;;;41.75;33.90;;;20.70;99.90;;;;;;5112832;28;20443;-67
2022/08/17 01:08:37;;;;;;;39.92;35.10;;;20.70;99.90;;;;;;5112991;28;20105;-67
2022/08/17 01:11:04;;;;;;;47.47;36.20;;;20.30;99.90;;;;;;5104843;28;20048;-67
2022/08/17 01:13:42;;;;;;;42.38;35.65;;;20.60;99.90;;;;;;5121349;27;20040;-67
2022/08/17 01:16:22;;;;;;;40.58;33.38;;;20.40;99.90;;;;;;5112833;28;20065;-67
2022/08/17 01:18:50;;;;;;;46.38;35.95;;;20.50;99.90;;;;;;5112764;28;20127;-68
2022/08/17 01:21:42;;;;;;;43.78;34.40;;;20.20;99.90;;;;;;5112444;28;20038;-67
2022/08/17 01:24:08;;;;;;;46.22;35.85;;;20.20;99.90;;;;;;5112837;28;20133;-67
2022/08/17 01:26:34;;;;;;;47.60;35.05;;;20.20;99.90;;;;;;5110101;28;20036;-67
2022/08/17 01:29:03;;;;;;;46.78;36.08;;;20.50;99.90;;;;;;5120984;27;20058;-67
2022/08/17 01:31:34;;;;;;;42.97;34.22;;;20.50;99.90;;;;;;5112148;28;20036;-66
2022/08/17 01:34:03;;;;;;;46.45;35.38;;;20.00;99.90;;;;;;5112230;28;20492;-67
2022/08/17 01:36:29;;;;;;;45.88;36.83;;;20.40;99.90;;;;;;5112114;28;20108;-67
2022/08/17 01:38:55;;;;;;;46.70;36.67;;;20.30;99.90;;;;;;5112637;28;20094;-67
2022/08/17 01:41:22;;;;;;;46.25;34.90;;;20.10;99.90;;;;;;5093860;28;20118;-67
2022/08/17 01:43:57;;;;;;;51.67;35.45;;;20.30;99.90;;;;;;5112321;28;20067;-67
2022/08/17 01:46:27;;;;;;;43.97;34.45;;;20.30;99.90;;;;;;5112116;28;20081;-67
2022/08/17 01:48:55;;;;;;;45.97;34.05;;;20.20;99.90;;;;;;5112496;28;20544;-67
2022/08/17 01:51:21;;;;;;;46.75;34.30;;;20.30;99.90;;;;;;5093601;28;20072;-67
2022/08/17 01:53:51;;;;;;;45.33;34.38;;;20.20;99.90;;;;;;5112148;28;20511;-67
2022/08/17 01:56:20;;;;;;;52.83;37.85;;;20.50;99.90;;;;;;5112132;28;20032;-67
2022/08/17 01:58:46;;;;;;;47.20;35.25;;;20.00;99.90;;;;;;5112068;28;20035;-67
2022/08/17 02:01:13;;;;;;;46.63;35.33;;;20.20;99.90;;;;;;5111818;28;20035;-67
2022/08/17 02:03:39;;;;;;;48.30;36.95;;;20.20;99.90;;;;;;5112037;28;20046;-67
2022/08/17 02:06:06;;;;;;;45.85;37.35;;;20.10;99.90;;;;;;5112134;28;20074;-67
2022/08/17 02:08:34;;;;;;;51.30;36.90;;;20.00;99.90;;;;;;5112117;28;20032;-67
2022/08/17 02:11:05;;;;;;;46.55;34.33;;;20.10;99.90;;;;;;5111718;28;20035;-67
2022/08/17 02:13:32;;;;;;;46.55;35.42;;;19.90;99.90;;;;;;5111933;28;20094;-67
2022/08/17 02:15:58;;;;;;;45.00;36.50;;;20.10;99.90;;;;;;5112099;28;20039;-67
2022/08/17 02:18:24;;;;;;;38.15;32.63;;;19.90;99.90;;;;;;5093893;28;20485;-67
2022/08/17 02:20:50;;;;;;;34.67;29.65;;;20.20;99.90;;;;;;5111667;28;20039;-67
2022/08/17 02:23:16;;;;;;;32.63;28.23;;;19.80;99.90;;;;;;5112005;28;20036;-67
2022/08/17 02:25:46;;;;;;;30.58;27.15;;;19.80;99.90;;;;;;5111914;28;20523;-67
2022/08/17 02:28:12;;;;;;;26.35;23.52;;;19.70;99.90;;;;;;5111763;28;20039;-67
2022/08/17 02:30:38;;;;;;;25.33;22.50;;;19.70;99.90;;;;;;5111742;28;20031;-67
2022/08/17 02:33:05;;;;;;;28.58;25.27;;;19.70;99.90;;;;;;5112031;28;20043;-67
2022/08/17 02:35:30;;;;;;;29.13;24.92;;;19.70;99.90;;;;;;5093470;28;20032;-67
2022/08/17 02:37:56;;;;;;;27.55;23.50;;;19.50;99.90;;;;;;5111932;28;20050;-67
2022/08/17 02:40:23;;;;;;;26.65;23.85;;;19.60;99.90;;;;;;5112980;28;20039;-67
2022/08/17 02:42:48;;;;;;;35.00;28.50;;;19.50;99.90;;;;;;5115645;28;20089;-67
2022/08/17 02:45:18;;;;;;;28.05;25.08;;;19.60;99.90;;;;;;5115801;28;20039;-67
2022/08/17 02:47:44;;;;;;;31.92;26.40;;;19.50;99.90;;;;;;5097504;28;20115;-67
2022/08/17 02:50:12;;;;;;;27.05;24.15;;;19.50;99.90;;;;;;5115375;28;20040;-67
2022/08/17 02:52:39;;;;;;;32.97;28.23;;;19.70;99.90;;;;;;5115639;28;20075;-67
2022/08/17 02:55:08;;;;;;;48.85;34.53;;;19.60;99.90;;;;;;5097233;28;20050;-67
2022/08/17 02:57:33;;;;;;;44.88;35.25;;;19.50;99.90;;;;;;5115773;28;20043;-67
2022/08/17 02:59:59;;;;;;;38.53;32.17;;;19.70;99.90;;;;;;5115079;28;20042;-67
2022/08/17 03:02:24;;;;;;;46.55;32.90;;;19.70;99.90;;;;;;5115507;28;20070;-67
2022/08/17 03:04:50;;;;;;;44.13;34.88;;;19.80;99.90;;;;;;5115297;28;20032;-67
2022/08/17 03:07:16;;;;;;;45.03;33.30;;;19.70;99.90;;;;;;5115345;28;20125;-67
2022/08/17 03:09:41;;;;;;;49.03;35.88;;;19.60;99.90;;;;;;5114903;28;20482;-67
2022/08/17 03:12:11;;;;;;;43.85;34.75;;;19.60;99.90;;;;;;5115078;28;20048;-67
2022/08/17 03:14:41;;;;;;;38.53;29.73;;;19.70;99.90;;;;;;5115094;28;20462;-67
2022/08/17 03:17:09;;;;;;;39.97;32.42;;;19.80;99.90;;;;;;5115223;28;20048;-67
2022/08/17 03:19:34;;;;;;;41.80;33.28;;;19.60;99.90;;;;;;5114892;28;20027;-67
2022/08/17 03:22:03;;;;;;;39.05;32.50;;;19.60;99.90;;;;;;5115059;28;20038;-67
2022/08/17 03:24:28;;;;;;;42.40;33.95;;;19.90;99.90;;;;;;5114854;28;20051;-67
2022/08/17 03:26:54;;;;;;;44.40;34.30;;;19.70;99.90;;;;;;5115075;28;20450;-67
2022/08/17 03:29:20;;;;;;;42.55;34.22;;;19.60;99.90;;;;;;5114763;28;20035;-67
2022/08/17 03:31:45;;;;;;;40.25;33.15;;;19.70;99.90;;;;;;5114701;28;20036;-67
2022/08/17 03:34:12;;;;;;;41.40;35.40;;;19.60;99.90;;;;;;5114870;28;20039;-67
2022/08/17 03:36:38;;;;;;;42.67;34.85;;;19.60;99.90;;;;;;5103009;22;20430;-69
2022/08/17 03:39:04;;;;;;;41.92;33.47;;;19.70;99.90;;;;;;5073757;28;20105;-69
2022/08/17 03:41:29;;;;;;;44.45;34.25;;;19.40;99.90;;;;;;5073822;28;20047;-69
2022/08/17 03:43:55;;;;;;;45.00;34.80;;;19.80;99.90;;;;;;5073460;28;20043;-69
2022/08/17 03:57:20;;;;;;;44.72;34.40;;;19.50;99.90;;;;;;5055525;28;20040;-69
2022/08/17 03:59:46;;;;;;;43.00;33.70;;;19.60;99.90;;;;;;5073325;28;20029;-69
2022/08/17 04:02:17;;;;;;;43.50;34.72;;;19.20;99.90;;;;;;5073817;28;20090;-69
2022/08/17 04:04:43;;;;;;;51.30;36.63;;;19.30;99.90;;;;;;5073744;28;20029;-69
2022/08/17 04:07:09;;;;;;;47.05;35.17;;;19.30;99.90;;;;;;5073567;28;20034;-69
2022/08/17 04:09:35;;;;;;;42.95;34.90;;;19.20;99.90;;;;;;5073235;28;20036;-69
2022/08/17 04:12:01;;;;;;;42.78;34.90;;;19.40;99.90;;;;;;5073332;28;20045;-69
2022/08/17 04:14:26;;;;;;;41.65;32.70;;;19.40;99.90;;;;;;5073192;28;20032;-69
2022/08/17 04:16:53;;;;;;;45.35;36.20;;;19.40;99.90;;;;;;5073299;28;20413;-69
2022/08/17 04:19:18;;;;;;;48.03;35.63;;;19.10;99.90;;;;;;5073114;28;20119;-69
2022/08/17 04:21:44;;;;;;;47.03;36.83;;;19.40;99.90;;;;;;5073319;28;20120;-69
2022/08/17 04:24:09;;;;;;;45.63;36.40;;;19.30;99.90;;;;;;5055193;28;20048;-70
2022/08/17 04:26:35;;;;;;;54.17;40.25;;;19.20;99.90;;;;;;5072995;28;20047;-69
2022/08/17 04:29:00;;;;;;;49.53;37.92;;;19.40;99.90;;;;;;5072888;28;20119;-69
2022/08/17 04:31:27;;;;;;;60.22;40.20;;;19.10;99.90;;;;;;5072810;28;20040;-70
2022/08/17 04:33:53;;;;;;;56.22;38.70;;;19.10;99.90;;;;;;5073077;28;20037;-69
2022/08/17 04:36:19;;;;;;;65.07;40.38;;;19.00;99.90;;;;;;5038190;28;20070;-69
2022/08/17 04:38:45;;;;;;;66.93;43.08;;;18.90;99.90;;;;;;5072788;28;20047;-69
2022/08/17 04:43:57;;;;;;;58.88;40.33;;;19.00;99.90;;;;;;5072955;28;20411;-70
2022/08/17 04:46:31;;;;;;;63.45;39.17;;;19.10;99.90;;;;;;5072841;28;20040;-69
2022/08/17 04:48:58;;;;;;;64.35;40.75;;;19.20;99.90;;;;;;5072695;28;20055;-69
2022/08/17 04:51:39;;;;;;;52.65;39.08;;;19.30;99.90;;;;;;5072284;28;20167;-70
2022/08/17 04:54:11;;;;;;;45.15;35.92;;;19.00;99.90;;;;;;5072474;28;20571;-69
2022/08/17 04:56:38;;;;;;;44.72;34.90;;;19.30;99.90;;;;;;5072608;28;20041;-69
2022/08/17 04:59:07;;;;;;;50.58;37.42;;;18.90;99.90;;;;;;5072527;28;20043;-69
2022/08/17 05:01:35;;;;;;;60.95;39.63;;;19.40;99.90;;;;;;5072254;28;20036;-69
2022/08/17 05:04:04;;;;;;;59.53;39.97;;;18.90;99.90;;;;;;5072141;28;20047;-70
2022/08/17 05:06:29;;;;;;;47.00;35.45;;;19.40;99.90;;;;;;5072123;28;20043;-69
2022/08/17 05:08:57;;;;;;;46.70;37.35;;;19.10;99.90;;;;;;5072477;28;20044;-70
2022/08/17 05:11:24;;;;;;;45.53;35.45;;;19.00;99.90;;;;;;5053902;28;20120;-69
2022/08/17 05:13:51;;;;;;;48.65;39.03;;;19.00;99.90;;;;;;5072346;28;20120;-69
2022/08/17 05:16:18;;;;;;;50.67;36.42;;;19.50;99.90;;;;;;5072100;28;20033;-70
2022/08/17 05:18:44;;;;;;;49.75;37.45;;;19.30;99.90;;;;;;5072091;28;20102;-69
2022/08/17 05:21:09;;;;;;;54.03;37.92;;;19.20;99.90;;;;;;5053838;28;20493;-69
2022/08/17 05:23:36;;;;;;;51.92;38.63;;;19.50;99.90;;;;;;5072223;28;20041;-69
2022/08/17 05:26:02;;;;;;;46.72;36.33;;;19.20;99.90;;;;;;5037358;28;20041;-69
2022/08/17 05:28:27;;;;;;;50.70;38.97;;;19.00;99.90;;;;;;5072063;28;20097;-69
2022/08/17 05:30:56;;;;;;;45.63;37.15;;;19.20;99.90;;;;;;5071595;28;20040;-69
2022/08/17 05:33:25;;;;;;;48.53;37.03;;;19.20;99.90;;;;;;5053756;28;20098;-70
2022/08/17 05:35:54;;;;;;;44.72;36.40;;;19.40;99.90;;;;;;5071734;28;20085;-70
2022/08/17 05:38:22;;;;;;;43.95;35.00;;;19.20;99.90;;;;;;5071956;28;20036;-69
2022/08/17 05:40:47;;;;;;;46.78;34.35;;;19.50;99.90;;;;;;5071566;28;20063;-69
2022/08/17 05:43:19;;;;;;;48.38;36.67;;;19.70;99.90;;;;;;5071813;28;20028;-69
2022/08/17 05:45:55;;;;;;;51.35;38.28;;;19.30;99.90;;;;;;5071771;28;20037;-71
2022/08/17 05:48:21;;;;;;;58.40;41.85;;;19.30;99.90;;;;;;5071887;28;20044;-69
2022/08/17 05:51:15;;;;;;;49.88;37.40;;;19.50;99.90;;;;;;5071063;28;20064;-69
2022/08/17 05:53:59;;;;;;;62.30;42.35;;;19.30;99.90;;;;;;5070454;28;20486;-69
2022/08/17 05:56:48;;;;;;;66.25;43.60;;;19.70;99.90;;;;;;5070928;28;20064;-69
2022/08/17 05:59:22;;;;;;;74.90;46.53;;;19.80;99.90;;;;;;5069286;28;20402;-68
2022/08/17 06:01:57;;;;;;;72.05;47.63;;;19.30;99.90;;;;;;5068823;28;20037;-68
2022/08/17 06:04:46;;;;;;;72.63;45.17;;;19.70;99.90;;;;;;5071549;28;20040;-68
2022/08/17 06:07:22;;;;;;;75.00;47.13;;;19.30;99.90;;;;;;5071630;28;20036;-69
2022/08/17 06:10:14;;;;;;;75.20;47.85;;;19.40;99.90;;;;;;5053282;28;20094;-68
2022/08/17 06:12:45;;;;;;;71.30;45.95;;;19.30;99.90;;;;;;5060414;28;20462;-69
2022/08/17 06:15:32;;;;;;;75.35;46.70;;;19.30;99.90;;;;;;5072481;28;20037;-68
2022/08/17 06:18:02;;;;;;;82.70;49.72;;;19.90;99.90;;;;;;5075731;28;20548;-69
2022/08/17 06:20:51;;;;;;;74.80;46.20;;;19.50;99.90;;;;;;5075417;28;20124;-69
2022/08/17 06:23:26;;;;;;;79.45;48.38;;;19.90;99.90;;;;;;5074945;28;20051;-68
2022/08/17 06:25:58;;;;;;;71.40;46.45;;;19.70;99.90;;;;;;5075516;28;20040;-69
2022/08/17 06:28:37;;;;;;;81.30;51.20;;;20.00;99.90;;;;;;5075733;28;20044;-70
2022/08/17 06:31:11;;;;;;;90.35;55.40;;;20.00;99.90;;;;;;5057170;28;20051;-70
2022/08/17 06:33:38;;;;;;;98.32;55.67;;;19.80;99.90;;;;;;5075314;28;20036;-69
2022/08/17 06:36:16;;;;;;;88.00;52.63;;;20.00;99.90;;;;;;5075012;28;20076;-70
2022/08/17 06:39:13;;;;;;;88.68;52.80;;;19.80;99.90;;;;;;5057185;28;20556;-69
2022/08/17 06:41:55;;;;;;;93.30;55.97;;;19.60;99.90;;;;;;5040651;28;20040;-69
2022/08/17 06:45:14;;;;;;;98.28;55.63;;;19.60;99.90;;;;;;5075012;28;20111;-69
2022/08/17 06:47:51;;;;;;;98.10;56.13;;;19.70;99.90;;;;;;4996496;28;20049;-71
2022/08/17 06:50:34;;;;;;;111.60;60.75;;;19.60;99.90;;;;;;5073929;28;20052;-70
2022/08/17 06:53:17;;;;;;;110.32;58.53;;;20.00;99.90;;;;;;5075082;28;20036;-69
2022/08/17 06:56:04;;;;;;;113.63;58.97;;;19.90;99.90;;;;;;5074849;28;20117;-74
2022/08/17 06:58:32;;;;;;;116.85;61.63;;;19.70;99.90;;;;;;5057100;28;20049;-71
2022/08/17 07:01:08;;;;;;;109.30;59.00;;;19.70;99.90;;;;;;5074337;28;20040;-70
2022/08/17 07:03:42;;;;;;;109.50;59.70;;;19.60;99.90;;;;;;5074628;28;20556;-70
2022/08/17 07:06:16;;;;;;;99.45;58.35;;;19.50;99.90;;;;;;5074687;28;20044;-70
2022/08/17 07:09:00;;;;;;;112.82;65.53;;;19.70;99.90;;;;;;5074626;28;20089;-70
2022/08/17 07:11:36;;;;;;;99.95;60.53;;;19.70;99.90;;;;;;5073633;28;20036;-70
2022/08/17 07:14:11;;;;;;;88.13;51.78;;;19.90;99.90;;;;;;5072400;28;20401;-70
2022/08/17 07:16:45;;;;;;;90.57;53.00;;;19.60;99.90;;;;;;5072314;28;20033;-71
2022/08/17 07:19:14;;;;;;;88.07;52.05;;;20.00;99.90;;;;;;5056223;28;20040;-71
2022/08/17 07:22:00;;;;;;;92.32;49.85;;;19.80;99.90;;;;;;5056141;28;20070;-70
2022/08/17 07:24:36;;;;;;;94.50;53.50;;;19.50;99.90;;;;;;5074371;28;20044;-70
2022/08/17 07:27:14;;;;;;;87.65;51.63;;;19.70;99.90;;;;;;5074137;28;20033;-70
2022/08/17 07:29:46;;;;;;;92.53;52.00;;;20.00;99.90;;;;;;5073450;28;20044;-70
2022/08/17 07:32:17;;;;;;;83.57;49.65;;;20.10;99.90;;;;;;5070657;28;20437;-70
2022/08/17 07:35:16;;;;;;;84.65;51.20;;;19.90;99.90;;;;;;5035967;28;20033;-70
2022/08/17 07:38:05;;;;;;;79.95;47.67;;;19.90;99.90;;;;;;5064844;28;20035;-69
2022/08/17 07:40:44;;;;;;;83.28;48.13;;;19.60;99.90;;;;;;5073740;28;20089;-71
2022/08/17 07:43:18;;;;;;;82.97;48.83;;;19.50;99.90;;;;;;5074130;28;20048;-70
2022/08/17 07:48:40;;;;;;;86.45;47.58;;;19.70;99.90;;;;;;5073583;28;20410;-70
2022/08/17 07:51:23;;;;;;;81.47;47.60;;;20.00;99.90;;;;;;5072762;28;20051;-70
2022/08/17 07:53:50;;;;;;;76.70;45.92;;;19.90;99.90;;;;;;5055628;28;20039;-70
2022/08/17 07:56:37;;;;;;;80.88;48.50;;;19.60;99.90;;;;;;5073858;28;20041;-70
2022/08/17 07:59:18;;;;;;;72.97;44.92;;;20.10;99.90;;;;;;5073731;28;20047;-70
2022/08/17 08:01:57;;;;;;;71.00;44.33;;;19.70;99.90;;;;;;5073806;28;20123;-71
2022/08/17 08:04:39;;;;;;;74.80;44.53;;;20.20;99.90;;;;;;5055489;28;20068;-70
2022/08/17 08:07:23;;;;;;;74.15;46.08;;;19.80;99.90;;;;;;5073144;28;20080;-71
2022/08/17 08:10:26;;;;;;;71.25;45.55;;;19.90;99.90;;;;;;5072025;28;20040;-69
2022/08/17 08:13:08;;;;;;;74.88;44.50;;;19.80;99.90;;;;;;5073598;28;20048;-70
2022/08/17 08:15:40;;;;;;;61.78;41.58;;;20.30;99.90;;;;;;5073407;28;20041;-69
2022/08/17 08:18:34;;;;;;;67.43;46.10;;;20.40;99.90;;;;;;5055626;28;20052;-69
2022/08/17 08:21:11;;;;;;;;;;;20.50;99.90;;;;;;5073736;28;20048;-69
2022/08/17 08:23:56;;;;;;;64.53;43.90;;;19.90;99.90;;;;;;5073358;28;20007;-70
2022/08/17 08:26:32;;;;;;;57.63;41.65;;;20.00;99.90;;;;;;5073022;28;20166;-70
2022/08/17 08:29:21;;;;;;;58.00;41.50;;;20.10;99.90;;;;;;5073265;28;20044;-70
2022/08/17 08:32:25;;;;;;;56.50;43.00;;;20.30;99.90;;;;;;5054696;28;20056;-70
2022/08/17 08:35:07;;;;;;;72.78;46.92;;;20.20;99.90;;;;;;5072568;28;20033;-70
2022/08/17 08:37:44;;;;;;;69.18;48.13;;;20.60;99.90;;;;;;5037207;28;20039;-70
2022/08/17 08:40:28;;;;;;;67.70;48.58;;;20.70;99.90;;;;;;5069333;28;20127;-70
2022/08/17 08:43:09;;;;;;;79.60;50.78;;;20.60;99.90;;;;;;5071732;28;20036;-70
2022/08/17 08:45:49;;;;;;;76.40;47.92;;;20.90;99.90;;;;;;5072578;28;20173;-69
2022/08/17 08:48:38;;;;;;;71.07;47.60;;;20.80;99.90;;;;;;5037701;28;20482;-70
2022/08/17 08:51:27;;;;;;;75.40;45.50;;;20.50;99.90;;;;;;5052227;28;20041;-70
2022/08/17 08:54:08;;;;;;;68.85;44.30;;;20.70;99.90;;;;;;5052797;28;20041;-70
2022/08/17 08:56:48;;;;;;;69.47;42.58;;;20.70;99.90;;;;;;5052503;28;20041;-70
2022/08/17 08:59:31;;;;;;;60.20;41.88;;;20.50;99.90;;;;;;5034415;28;20087;-68
2022/08/17 09:02:22;;;;;;;68.03;41.17;;;20.80;99.90;;;;;;5052393;28;20051;-69
2022/08/17 09:05:06;;;;;;;65.13;41.70;;;20.80;99.90;;;;;;5052323;28;20156;-70
2022/08/17 09:07:59;;;;;;;71.22;43.88;;;20.40;99.90;;;;;;5052415;28;20037;-69
2022/08/17 09:10:46;;;;;;;71.73;43.43;;;20.40;99.90;;;;;;5052241;28;20048;-68
2022/08/17 09:13:24;;;;;;;73.47;42.92;;;20.40;99.90;;;;;;5052453;28;20064;-69
2022/08/17 09:16:01;;;;;;;65.30;41.30;;;20.20;99.90;;;;;;5052284;28;20108;-69
2022/08/17 09:18:34;;;;;;;68.50;43.60;;;20.30;99.90;;;;;;5052259;28;20507;-69
2022/08/17 09:21:16;;;;;;;59.63;39.85;;;20.70;99.90;;;;;;5052013;28;20128;-68
2022/08/17 09:24:12;;;;;;;59.58;40.03;;;20.60;99.90;;;;;;5034290;28;20049;-69
2022/08/17 09:27:05;;;;;;;56.85;39.63;;;21.00;99.90;;;;;;5024954;28;20067;-69
2022/08/17 09:29:35;;;;;;;54.22;38.03;;;20.90;99.90;;;;;;5051780;28;20128;-69
2022/08/17 09:32:08;;;;;;;59.10;39.75;;;21.10;99.90;;;;;;5052049;28;20072;-69
2022/08/17 09:34:46;;;;;;;58.30;38.83;;;21.40;99.90;;;;;;5052001;28;20044;-70
2022/08/17 09:37:50;;;;;;;58.63;39.15;;;21.40;99.90;;;;;;5109759;22;20135;-67
2022/08/17 09:40:27;;;;;;;59.55;40.08;;;21.00;99.90;;;;;;5090675;28;20134;-67
2022/08/17 09:43:31;;;;;;;58.45;38.55;;;21.20;99.90;;;;;;5092119;28;20039;-67
2022/08/17 09:46:31;;;;;;;57.70;37.30;;;21.20;99.90;;;;;;5066826;28;20043;-67
2022/08/17 09:49:20;;;;;;;51.55;36.30;;;20.90;99.90;;;;;;5087959;28;20508;-67
2022/08/17 09:51:54;;;;;;;53.58;37.08;;;20.80;99.90;;;;;;5091652;28;20055;-67
2022/08/17 09:54:36;;;;;;;57.72;38.67;;;20.80;99.90;;;;;;5092203;28;20044;-67
2022/08/17 09:57:08;;;;;;;62.22;41.00;;;21.20;99.90;;;;;;5091854;28;20059;-67
2022/08/17 09:59:51;;;;;;;59.93;38.87;;;21.10;99.90;;;;;;5091501;28;20127;-67
2022/08/17 10:02:20;;;;;;;65.60;40.22;;;21.30;99.90;;;;;;5091668;28;20040;-67
2022/08/17 10:05:03;;;;;;;59.40;40.75;;;20.90;99.90;;;;;;5092005;28;20098;-67
2022/08/17 10:07:35;;;;;;;61.00;39.65;;;21.20;99.90;;;;;;5089871;28;20047;-67
2022/08/17 10:10:25;;;;;;;57.25;39.55;;;21.20;99.90;;;;;;5087282;28;20090;-67
2022/08/17 10:12:57;;;;;;;58.65;38.97;;;21.00;99.90;;;;;;5091700;28;20501;-68
2022/08/17 10:15:50;;;;;;;58.05;38.97;;;21.20;99.90;;;;;;5091851;28;20059;-72
2022/08/17 10:18:28;;;;;;;59.95;41.50;;;21.40;99.90;;;;;;5090651;28;20044;-68
2022/08/17 10:26:48;;;;;;;50.63;39.47;;;21.20;99.90;;;;;;5092438;28;20070;-68
2022/08/17 10:29:38;;;;;;;50.30;36.25;;;21.50;99.90;;;;;;5090352;28;20047;-69
2022/08/17 10:32:10;;;;;;;54.70;41.28;;;21.80;99.90;;;;;;5091429;28;20040;-68
2022/08/17 10:34:45;;;;;;;55.78;42.08;;;21.50;99.90;;;;;;5091737;28;20043;-69
2022/08/17 10:37:13;;;;;;;52.47;39.83;;;21.60;99.90;;;;;;5091492;28;20043;-68
2022/08/17 10:40:04;;;;;;;47.45;37.38;;;21.70;99.90;;;;;;5091363;28;20043;-69
2022/08/17 10:42:53;;;;;;;47.85;36.30;;;21.70;99.90;;;;;;5091284;28;20032;-68
2022/08/17 10:45:28;;;;;;;50.55;36.08;;;21.60;99.90;;;;;;5089698;28;20035;-68
2022/08/17 10:48:05;;;;;;;45.97;34.35;;;21.70;99.90;;;;;;5071262;28;20406;-68
2022/08/17 10:50:43;;;;;;;45.15;35.97;;;21.80;99.90;;;;;;5072603;28;20048;-69
2022/08/17 10:53:09;;;;;;;46.30;37.05;;;21.70;99.90;;;;;;5088942;28;20028;-68
2022/08/17 10:55:35;;;;;;;44.65;36.97;;;21.80;99.90;;;;;;5091065;28;20047;-68
2022/08/17 10:58:19;;;;;;;39.85;33.83;;;21.70;99.90;;;;;;5089770;28;20040;-68
2022/08/17 11:00:52;;;;;;;38.33;31.17;;;21.90;99.90;;;;;;5088138;28;20051;-69
2022/08/17 11:03:21;;;;;;;36.90;30.58;;;21.90;99.90;;;;;;5093354;28;20044;-68
2022/08/17 11:05:58;;;;;;;34.50;27.65;;;21.90;99.90;;;;;;5092439;28;20505;-68
2022/08/17 11:08:44;;;;;;;30.23;26.20;;;21.80;99.90;;;;;;5094963;28;20501;-68
2022/08/17 11:11:41;;;;;;;40.38;32.60;;;22.00;99.90;;;;;;5094498;28;20123;-69
2022/08/17 11:14:46;;;;;;;40.22;33.17;;;21.90;99.90;;;;;;5095098;28;20032;-69
2022/08/17 11:17:30;;;;;;;42.40;34.55;;;22.00;99.90;;;;;;5094750;28;20044;-68
2022/08/17 11:20:26;;;;;;;41.95;34.83;;;22.00;99.90;;;;;;5094484;28;20040;-69
2022/08/17 11:23:24;;;;;;;37.63;29.95;;;22.00;99.90;;;;;;5094853;28;20524;-69
2022/08/17 11:25:54;;;;;;;30.65;26.05;;;22.20;99.90;;;;;;5077673;28;20059;-69
2022/08/17 11:28:24;;;;;;;31.67;23.55;;;22.40;99.90;;;;;;5094837;28;20100;-69
2022/08/17 11:31:22;;;;;;;27.40;24.42;;;22.30;99.90;;;;;;5094287;28;20044;-69
2022/08/17 11:34:16;;;;;;;30.23;26.63;;;22.30;99.90;;;;;;5094592;28;20089;-69
2022/08/17 11:36:54;;;;;;;31.40;26.60;;;22.50;99.90;;;;;;5084763;28;20059;-69
2022/08/17 11:39:48;;;;;;;31.65;27.85;;;22.50;99.90;;;;;;5093072;28;20102;-69
2022/08/17 11:42:26;;;;;;;;;;;22.60;99.90;;;;;;5094821;28;20084;-69
2022/08/17 11:44:56;;;;;;;30.75;26.73;;;22.60;99.90;;;;;;5094642;28;20027;-70
2022/08/17 11:53:38;;;;;;;21.08;18.98;;;22.70;99.90;;;;;;5094049;28;20044;-69
2022/08/17 11:56:33;;;;;;;19.73;17.73;;;22.80;99.90;;;;;;5094096;28;20541;-69
2022/08/17 11:58:59;;;;;;;20.23;16.55;;;22.80;99.90;;;;;;5094028;28;20115;-69
2022/08/17 12:01:28;;;;;;;23.15;19.10;;;22.90;99.90;;;;;;5093853;28;20040;-69
2022/08/17 12:04:20;;;;;;;22.85;18.17;;;22.90;99.90;;;;;;5092677;28;20082;-68
2022/08/17 12:07:05;;;;;;;19.67;17.57;;;23.10;99.90;;;;;;5088254;28;20063;-69
2022/08/17 12:09:33;;;;;;;18.90;16.70;;;23.20;99.90;;;;;;5093521;28;20047;-68
2022/08/17 12:12:12;;;;;;;19.48;16.20;;;23.10;99.90;;;;;;5093441;28;20087;-69
2022/08/17 12:14:40;;;;;;;16.98;14.70;;;23.20;99.90;;;;;;5093503;28;20105;-69
2022/08/17 12:17:08;;;;;;;19.42;15.50;;;23.20;99.90;;;;;;5092338;28;20052;-69
2022/08/17 12:19:36;;;;;;;17.67;15.80;;;23.30;99.90;;;;;;5093404;28;20039;-69
2022/08/17 12:22:15;;;;;;;18.15;16.35;;;23.10;99.90;;;;;;5093052;28;20036;-68
2022/08/17 12:25:01;;;;;;;20.95;18.02;;;23.20;99.90;;;;;;5091913;28;20032;-69
2022/08/17 12:27:31;;;;;;;21.13;17.52;;;23.20;99.90;;;;;;5093502;28;20467;-69
2022/08/17 12:29:58;;;;;;;19.70;16.23;;;23.30;99.90;;;;;;5093203;28;20439;-69
2022/08/17 12:32:29;;;;;;;17.55;15.05;;;23.40;99.90;;;;;;5093243;28;20040;-69
2022/08/17 12:34:55;;;;;;;18.23;14.85;;;23.50;99.90;;;;;;5093531;28;20173;-70
2022/08/17 12:37:26;;;;;;;18.45;14.95;;;23.50;99.90;;;;;;5091765;28;20062;-69
2022/08/17 12:40:16;;;;;;;20.90;18.83;;;23.60;99.90;;;;;;5092936;28;20528;-69
2022/08/17 12:43:03;;;;;;;19.25;17.05;;;23.50;99.90;;;;;;5093130;28;20032;-67
2022/08/17 12:45:38;;;;;;;22.67;19.45;;;23.30;99.90;;;;;;5093280;28;20075;-68
2022/08/17 12:48:10;;;;;;;22.20;18.40;;;23.40;99.90;;;;;;5093249;28;20051;-67
2022/08/17 12:50:38;;;;;;;27.20;20.13;;;23.40;99.90;;;;;;5092849;28;20072;-68
2022/08/17 12:53:26;;;;;;;22.33;17.85;;;23.50;99.90;;;;;;5090318;28;20047;-67
2022/08/17 12:55:53;;;;;;;21.15;18.63;;;23.40;99.90;;;;;;5091467;28;20547;-67
2022/08/17 12:58:23;;;;;;;22.83;19.02;;;23.50;99.90;;;;;;5092543;28;20566;-67
2022/08/17 13:01:14;;;;;;;22.35;17.90;;;23.30;99.90;;;;;;5092696;28;20078;-68
2022/08/17 13:03:48;;;;;;;21.85;17.92;;;23.50;99.90;;;;;;5091661;28;20089;-67
2022/08/17 13:06:32;;;;;;;21.63;16.63;;;23.40;99.90;;;;;;5091391;28;20051;-67
2022/08/17 13:09:19;;;;;;;20.30;17.40;;;23.50;99.90;;;;;;5092958;28;20115;-67
2022/08/17 13:11:51;;;;;;;24.73;18.45;;;23.20;99.90;;;;;;5092660;28;20571;-67
2022/08/17 13:14:17;;;;;;;22.13;18.77;;;23.30;99.90;;;;;;5092691;28;20032;-67
2022/08/17 13:17:00;;;;;;;22.42;18.23;;;23.30;99.90;;;;;;5092561;28;20039;-67
2022/08/17 13:19:29;;;;;;;22.58;18.63;;;23.20;99.90;;;;;;5091234;28;20473;-67
2022/08/17 13:22:00;;;;;;;22.63;19.05;;;23.00;99.90;;;;;;5092459;28;20409;-67
2022/08/17 13:24:32;;;;;;;21.52;19.13;;;23.10;99.90;;;;;;5092128;28;20040;-67
2022/08/17 13:27:01;;;;;;;23.38;19.08;;;23.00;99.90;;;;;;5092259;28;20509;-67
2022/08/17 13:29:37;;;;;;;29.67;20.98;;;23.10;99.90;;;;;;5091961;28;20042;-67
2022/08/17 13:32:03;;;;;;;24.63;20.30;;;23.20;99.90;;;;;;5090922;28;20047;-67
2022/08/17 13:34:38;;;;;;;27.38;20.52;;;23.10;99.90;;;;;;5092259;28;20032;-68